createdAt,value
2022-12-14T00:01:57.395Z,82.14
2022-12-14T00:06:58.861Z,81.96
2022-12-14T00:12:00.286Z,80.96
2022-12-14T00:17:01.697Z,81.22
2022-12-14T00:22:03.041Z,81.50
2022-12-14T00:27:04.579Z,81.55
2022-12-14T00:32:06.009Z,80.73
2022-12-14T00:37:07.385Z,79.40
2022-12-14T00:42:08.718Z,79.37
2022-12-14T00:47:10.153Z,79.10
2022-12-14T00:52:11.555Z,80.15
2022-12-14T00:57:13.208Z,79.62
2022-12-14T01:02:14.696Z,79.33
2022-12-14T01:07:16.093Z,79.93
2022-12-14T01:12:17.616Z,80.27
2022-12-14T01:17:18.952Z,79.76
2022-12-14T01:22:20.345Z,79.58
2022-12-14T01:27:22.225Z,78.77
2022-12-14T01:32:23.769Z,79.39
2022-12-14T01:37:25.184Z,78.84
2022-12-14T01:42:26.511Z,79.45
2022-12-14T01:47:35.481Z,78.42
2022-12-14T01:52:41.119Z,78.63
2022-12-14T01:57:48.868Z,78.90
2022-12-14T02:02:59.461Z,79.04
2022-12-14T02:08:02.780Z,78.09
2022-12-14T02:13:11.796Z,79.17
2022-12-14T02:18:19.512Z,78.41
2022-12-14T02:23:37.525Z,78.41
2022-12-14T02:29:15.140Z,79.48
2022-12-14T02:34:30.490Z,80.09
2022-12-14T02:39:41.019Z,80.47
2022-12-14T02:45:06.681Z,80.11
2022-12-14T02:50:16.816Z,80.15
2022-12-14T02:55:28.037Z,80.33
2022-12-14T03:00:34.642Z,80.34
2022-12-14T03:05:36.089Z,80.18
2022-12-14T03:10:37.626Z,80.47
2022-12-14T03:15:42.052Z,80.66
2022-12-14T03:20:47.538Z,81.37
2022-12-14T03:26:00.220Z,80.36
2022-12-14T03:31:16.167Z,80.35
2022-12-14T03:36:47.072Z,80.09
2022-12-14T03:42:09.849Z,80.01
2022-12-14T03:47:39.352Z,80.18
2022-12-14T03:52:59.302Z,79.65
2022-12-14T03:58:10.950Z,80.52
2022-12-14T04:03:29.673Z,79.94
2022-12-14T04:08:34.049Z,80.16
2022-12-14T04:13:40.466Z,79.59
2022-12-14T04:18:44.871Z,79.98
2022-12-14T04:23:51.729Z,79.12
2022-12-14T04:29:01.329Z,79.29
2022-12-14T04:34:05.724Z,79.63
2022-12-14T04:39:13.056Z,79.74
2022-12-14T04:44:43.154Z,79.72
2022-12-14T04:49:56.341Z,80.07
2022-12-14T04:55:05.452Z,79.81
2022-12-14T05:00:07.505Z,80.03
2022-12-14T05:05:23.701Z,79.47
2022-12-14T05:10:41.425Z,80.51
2022-12-14T05:15:47.308Z,79.30
2022-12-14T05:20:49.730Z,79.02
2022-12-14T05:25:51.178Z,80.62
2022-12-14T05:30:52.717Z,80.36
2022-12-14T05:35:54.829Z,79.89
2022-12-14T05:41:01.155Z,79.69
2022-12-14T05:46:08.573Z,79.10
2022-12-14T05:51:13.463Z,79.33
2022-12-14T05:56:14.930Z,79.52
2022-12-14T06:01:19.396Z,79.61
2022-12-14T06:06:21.251Z,80.40
2022-12-14T06:11:23.248Z,80.22
2022-12-14T06:16:25.781Z,78.84
2022-12-14T06:21:29.578Z,78.79
2022-12-14T06:26:32.644Z,78.77
2022-12-14T06:31:34.394Z,78.10
2022-12-14T06:36:37.694Z,78.24
2022-12-14T06:41:39.959Z,77.69
2022-12-14T06:46:41.972Z,78.03
2022-12-14T06:51:43.932Z,77.50
2022-12-14T06:56:46.792Z,76.89
2022-12-14T07:01:50.547Z,77.49
2022-12-14T07:06:52.212Z,78.85
2022-12-14T07:11:53.637Z,78.80
2022-12-14T07:16:55.034Z,78.25
2022-12-14T07:21:56.428Z,77.00
2022-12-14T07:26:57.781Z,78.30
2022-12-14T07:31:59.399Z,78.61
2022-12-14T07:37:00.763Z,77.56
2022-12-14T07:42:02.138Z,78.17
2022-12-14T07:47:03.929Z,78.10
2022-12-14T07:52:05.280Z,78.24
2022-12-14T07:57:06.630Z,78.52
2022-12-14T08:02:11.423Z,78.54
2022-12-14T08:07:14.751Z,78.69
2022-12-14T08:12:16.175Z,77.93
2022-12-14T08:17:17.554Z,78.16
2022-12-14T08:22:19.019Z,78.18
2022-12-14T08:27:20.371Z,77.32
2022-12-14T08:32:21.792Z,76.96
2022-12-14T08:37:23.217Z,77.72
2022-12-14T08:42:24.576Z,76.10
2022-12-14T08:47:25.897Z,76.66
2022-12-14T08:52:27.316Z,76.39
2022-12-14T08:57:28.680Z,77.37
2022-12-14T09:02:30.237Z,77.38
2022-12-14T09:07:32.606Z,77.11
2022-12-14T09:12:33.913Z,76.58
2022-12-14T09:17:35.276Z,76.19
2022-12-14T09:22:36.633Z,75.75
2022-12-14T09:27:38.323Z,76.72
2022-12-14T09:32:39.661Z,76.33
2022-12-14T09:37:40.970Z,76.62
2022-12-14T09:42:50.762Z,76.04
2022-12-14T09:48:04.899Z,76.38
2022-12-14T09:53:11.539Z,76.91
2022-12-14T09:58:24.936Z,78.19
2022-12-14T10:03:44.479Z,78.51
2022-12-14T10:08:55.522Z,79.07
2022-12-14T10:13:57.051Z,80.10
2022-12-14T10:19:26.432Z,81.50
2022-12-14T10:24:37.649Z,82.40
2022-12-14T10:29:48.361Z,83.24
2022-12-14T10:34:50.871Z,85.25
2022-12-14T10:40:11.611Z,86.07
2022-12-14T10:45:40.834Z,86.91
2022-12-14T10:51:06.438Z,88.33
2022-12-14T10:56:16.426Z,88.42
2022-12-14T11:01:17.953Z,88.94
2022-12-14T11:06:20.717Z,89.06
2022-12-14T11:11:27.275Z,90.55
2022-12-14T11:16:37.979Z,90.90
2022-12-14T11:21:39.730Z,92.35
2022-12-14T11:26:43.145Z,93.01
2022-12-14T11:31:51.305Z,93.20
2022-12-14T11:36:52.722Z,92.61
2022-12-14T11:42:03.869Z,92.33
2022-12-14T11:47:11.236Z,92.60
2022-12-14T11:52:37.716Z,93.66
2022-12-14T11:57:48.058Z,94.11
2022-12-14T12:02:55.438Z,94.63
2022-12-14T12:07:58.871Z,94.60
2022-12-14T12:13:02.187Z,95.22
2022-12-14T12:18:16.814Z,95.24
2022-12-14T12:23:24.828Z,96.24
2022-12-14T12:28:40.276Z,97.01
2022-12-14T12:34:00.397Z,96.45
2022-12-14T12:39:07.635Z,95.42
2022-12-14T12:44:50.270Z,94.34
2022-12-14T12:49:51.915Z,93.83
2022-12-14T12:55:18.398Z,93.31
2022-12-14T13:00:23.067Z,92.98
2022-12-14T13:05:46.208Z,93.11
2022-12-14T13:16:24.736Z,90.90
2022-12-14T13:21:31.122Z,90.11
2022-12-14T13:26:58.833Z,90.71
2022-12-14T13:32:18.750Z,91.25
2022-12-14T13:37:38.865Z,91.14
2022-12-14T13:42:52.375Z,90.58
2022-12-14T13:47:57.206Z,90.74
2022-12-14T13:53:21.125Z,90.13
2022-12-14T13:58:43.592Z,91.00
2022-12-14T14:03:48.100Z,91.48
2022-12-14T14:08:52.613Z,91.58
2022-12-14T14:14:11.624Z,91.97
2022-12-14T14:19:17.603Z,92.89
2022-12-14T14:24:21.282Z,92.73
2022-12-14T14:29:30.259Z,92.39
2022-12-14T14:34:46.446Z,92.88
2022-12-14T14:40:29.429Z,94.06
2022-12-14T14:46:02.072Z,94.41
2022-12-14T14:51:05.467Z,94.67
2022-12-14T14:56:11.420Z,95.16
2022-12-14T15:01:20.697Z,95.50
2022-12-14T15:06:44.667Z,95.58
2022-12-14T15:11:56.876Z,96.01
2022-12-14T15:16:59.066Z,96.30
2022-12-14T15:22:05.107Z,96.57
2022-12-14T15:27:30.031Z,96.88
2022-12-14T15:32:32.107Z,97.47
2022-12-14T15:38:01.636Z,97.92
2022-12-14T15:43:17.336Z,98.42
2022-12-14T15:48:25.785Z,99.52
2022-12-14T15:53:34.282Z,99.60
2022-12-14T15:58:38.639Z,99.83
2022-12-14T16:03:44.250Z,100.00
2022-12-14T16:08:55.759Z,100.00
2022-12-14T16:14:00.485Z,100.00
2022-12-14T16:19:25.897Z,100.00
2022-12-14T16:24:28.285Z,100.00
2022-12-14T16:29:32.036Z,100.00
2022-12-14T16:34:33.922Z,100.00
2022-12-14T16:39:44.142Z,100.00
2022-12-14T16:44:45.455Z,100.00
2022-12-14T16:49:49.576Z,100.00
2022-12-14T16:55:14.830Z,100.00
2022-12-14T17:00:31.406Z,100.00
2022-12-14T17:05:39.606Z,100.00
2022-12-14T17:10:40.967Z,100.00
2022-12-14T17:16:01.701Z,100.00
2022-12-14T17:21:05.048Z,100.00
2022-12-14T17:26:06.918Z,100.00
2022-12-14T17:31:10.951Z,100.00
2022-12-14T17:36:12.471Z,100.00
2022-12-14T17:41:20.495Z,100.00
2022-12-14T17:46:22.129Z,100.00
2022-12-14T17:51:29.571Z,100.00
2022-12-14T17:56:30.948Z,100.00
2022-12-14T18:01:34.754Z,100.00
2022-12-14T18:06:36.230Z,100.00
2022-12-14T18:11:54.249Z,100.00
2022-12-14T18:16:58.942Z,100.00
2022-12-14T18:22:00.325Z,100.00
2022-12-14T18:27:01.721Z,100.00
2022-12-14T18:32:03.343Z,100.00
2022-12-14T18:37:04.662Z,100.00
2022-12-14T18:42:06.053Z,100.00
2022-12-14T18:47:33.669Z,100.00
2022-12-14T18:52:28.754Z,100.00
2022-12-14T18:57:30.082Z,100.00
2022-12-14T19:02:31.779Z,100.00
2022-12-14T19:07:33.794Z,100.00
2022-12-14T19:12:35.227Z,100.00
2022-12-14T19:17:36.805Z,100.00
2022-12-14T19:22:38.564Z,100.00
2022-12-14T19:28:15.549Z,100.00
2022-12-14T19:33:01.594Z,100.00
2022-12-14T19:38:03.040Z,100.00
2022-12-14T19:43:04.400Z,100.00
2022-12-14T19:48:12.781Z,100.00
2022-12-14T19:53:17.368Z,100.00
2022-12-14T19:58:21.427Z,100.00
2022-12-14T20:03:23.452Z,100.00
2022-12-14T20:08:27.054Z,100.00
2022-12-14T20:13:28.684Z,100.00
2022-12-14T20:18:31.554Z,100.00
2022-12-14T20:23:34.786Z,100.00
2022-12-14T20:28:36.389Z,100.00
2022-12-14T20:33:38.858Z,100.00
2022-12-14T20:38:40.554Z,100.00
2022-12-14T20:43:44.322Z,100.00
2022-12-14T20:48:47.385Z,100.00
2022-12-14T20:53:49.498Z,100.00
2022-12-14T20:58:51.062Z,100.00
2022-12-14T21:03:52.509Z,100.00
2022-12-14T21:08:54.061Z,100.00
2022-12-14T21:13:55.434Z,100.00
2022-12-14T21:18:56.816Z,100.00
2022-12-14T21:23:58.217Z,100.00
2022-12-14T21:28:59.600Z,100.00
2022-12-14T21:34:01.153Z,100.00
2022-12-14T21:39:02.538Z,100.00
2022-12-14T21:44:04.391Z,100.00
2022-12-14T21:49:05.960Z,100.00
2022-12-14T21:54:07.734Z,100.00
2022-12-14T21:59:11.518Z,100.00
2022-12-14T22:04:12.931Z,100.00
2022-12-14T22:09:14.334Z,100.00
2022-12-14T22:14:21.956Z,100.00
2022-12-14T22:19:24.305Z,100.00
2022-12-14T22:24:27.042Z,100.00
2022-12-14T22:29:28.653Z,100.00
2022-12-14T22:34:30.410Z,100.00
2022-12-14T22:39:31.760Z,100.00
2022-12-14T22:44:33.145Z,100.00
2022-12-14T22:49:34.552Z,100.00
2022-12-14T22:54:37.972Z,100.00
2022-12-14T22:59:44.946Z,100.00
2022-12-14T23:04:46.345Z,100.00
2022-12-14T23:09:51.526Z,100.00
2022-12-14T23:14:52.925Z,100.00
2022-12-14T23:19:56.672Z,100.00
2022-12-14T23:25:00.041Z,100.00
2022-12-14T23:30:01.506Z,100.00
2022-12-14T23:35:03.080Z,100.00
2022-12-14T23:40:05.017Z,100.00
2022-12-14T23:45:06.826Z,100.00
2022-12-14T23:50:08.353Z,100.00
2022-12-14T23:55:09.677Z,100.00
